createdAt,value
2019-03-25T00:00:48.449Z,67.97
2019-03-25T00:03:17.230Z,69.23
2019-03-25T00:05:45.631Z,66.87
2019-03-25T00:08:14.047Z,72.70
2019-03-25T00:10:42.535Z,70.47
2019-03-25T00:13:10.947Z,75.77
2019-03-25T00:15:39.363Z,71.40
2019-03-25T00:18:07.847Z,72.70
2019-03-25T00:20:36.251Z,69.60
2019-03-25T00:23:04.737Z,72.60
2019-03-25T00:25:33.139Z,71.50
2019-03-25T00:28:01.557Z,72.80
2019-03-25T00:30:29.965Z,74.50
2019-03-25T00:32:58.394Z,73.07
2019-03-25T00:35:26.790Z,72.97
2019-03-25T00:37:55.481Z,73.73
2019-03-25T00:40:24.036Z,72.80
2019-03-25T00:42:52.561Z,71.80
2019-03-25T00:45:20.975Z,71.23
2019-03-25T00:47:49.750Z,70.37
2019-03-25T00:50:18.220Z,69.23
2019-03-25T00:52:46.713Z,73.03
2019-03-25T00:55:15.283Z,68.83
2019-03-25T00:57:43.753Z,68.33
2019-03-25T01:00:12.573Z,70.90
2019-03-25T01:02:40.979Z,71.23
2019-03-25T01:05:09.621Z,71.40
2019-03-25T01:07:38.107Z,71.53
2019-03-25T01:10:07.663Z,71.13
2019-03-25T01:12:36.104Z,68.73
2019-03-25T01:15:06.546Z,69.53
2019-03-25T01:17:34.956Z,68.83
2019-03-25T01:20:05.120Z,69.70
2019-03-25T01:22:33.539Z,66.90
2019-03-25T01:25:02.761Z,70.43
2019-03-25T01:27:31.443Z,67.67
2019-03-25T01:29:59.847Z,69.93
2019-03-25T01:32:28.257Z,69.07
2019-03-25T01:34:56.680Z,67.43
2019-03-25T01:37:25.125Z,68.33
2019-03-25T01:39:53.607Z,71.40
2019-03-25T01:42:22.013Z,69.43
2019-03-25T01:44:50.500Z,65.17
2019-03-25T01:47:18.921Z,66.73
2019-03-25T01:49:47.332Z,66.73
2019-03-25T01:52:15.734Z,70.20
2019-03-25T01:54:44.153Z,67.40
2019-03-25T01:57:12.565Z,68.50
2019-03-25T01:59:40.988Z,70.77
2019-03-25T02:02:09.387Z,66.53
2019-03-25T02:04:37.804Z,69.57
2019-03-25T02:07:06.219Z,70.20
2019-03-25T02:09:34.644Z,65.07
2019-03-25T02:12:03.054Z,70.30
2019-03-25T02:14:31.469Z,71.40
2019-03-25T02:16:59.884Z,68.80
2019-03-25T02:19:28.394Z,67.57
2019-03-25T02:21:56.805Z,68.23
2019-03-25T02:24:25.224Z,70.73
2019-03-25T02:26:53.628Z,71.27
2019-03-25T02:29:22.048Z,68.23
2019-03-25T02:31:50.473Z,68.03
2019-03-25T02:34:18.881Z,71.90
2019-03-25T02:36:47.305Z,70.60
2019-03-25T02:39:15.726Z,65.37
2019-03-25T02:41:44.156Z,65.77
2019-03-25T02:44:12.578Z,71.13
2019-03-25T02:46:40.992Z,71.90
2019-03-25T02:49:09.413Z,71.97
2019-03-25T02:51:37.822Z,71.90
2019-03-25T02:54:06.232Z,71.77
2019-03-25T02:56:34.659Z,72.57
2019-03-25T02:59:03.075Z,74.07
2019-03-25T03:01:31.565Z,73.33
2019-03-25T03:04:00.046Z,70.47
2019-03-25T03:06:28.515Z,76.00
2019-03-25T03:08:56.929Z,80.53
2019-03-25T03:11:25.587Z,77.70
2019-03-25T03:13:55.833Z,78.03
2019-03-25T03:16:24.247Z,77.90
2019-03-25T03:18:52.914Z,78.87
2019-03-25T03:21:21.658Z,76.20
2019-03-25T03:23:50.048Z,76.37
2019-03-25T03:26:18.714Z,80.13
2019-03-25T03:28:47.245Z,75.60
2019-03-25T03:31:15.657Z,72.00
2019-03-25T03:33:44.136Z,81.90
2019-03-25T03:36:14.673Z,76.13
2019-03-25T03:38:43.140Z,73.90
2019-03-25T03:41:11.552Z,75.70
2019-03-25T03:43:39.973Z,73.40
2019-03-25T03:46:08.384Z,77.23
2019-03-25T03:48:37.068Z,77.13
2019-03-25T03:51:05.795Z,73.30
2019-03-25T03:53:34.539Z,71.67
2019-03-25T03:56:12.591Z,72.07
2019-03-25T03:58:34.191Z,73.33
2019-03-25T04:01:02.605Z,74.00
2019-03-25T04:03:31.021Z,69.87
2019-03-25T04:05:59.424Z,70.87
2019-03-25T04:08:27.841Z,69.90
2019-03-25T04:10:56.336Z,71.07
2019-03-25T04:13:24.800Z,68.87
2019-03-25T04:15:53.227Z,75.00
2019-03-25T04:18:21.637Z,65.57
2019-03-25T04:20:50.069Z,73.80
2019-03-25T04:23:18.475Z,71.70
2019-03-25T04:25:46.880Z,72.47
2019-03-25T04:28:15.301Z,70.43
2019-03-25T04:30:43.711Z,69.80
2019-03-25T04:33:12.135Z,71.23
2019-03-25T04:35:40.545Z,73.90
2019-03-25T04:38:08.952Z,71.43
2019-03-25T04:40:37.358Z,71.10
2019-03-25T04:43:05.785Z,70.53
2019-03-25T04:45:34.195Z,64.17
2019-03-25T04:48:02.601Z,71.73
2019-03-25T04:50:31.021Z,67.37
2019-03-25T04:52:59.443Z,68.53
2019-03-25T04:55:27.859Z,68.40
2019-03-25T04:57:56.533Z,68.70
2019-03-25T05:00:37.170Z,71.40
2019-03-25T05:03:05.670Z,71.67
2019-03-25T05:05:36.085Z,73.57
2019-03-25T05:08:04.346Z,79.33
2019-03-25T05:10:32.753Z,80.47
2019-03-25T05:13:01.174Z,81.87
2019-03-25T05:15:29.585Z,80.77
2019-03-25T05:17:57.999Z,81.33
2019-03-25T05:20:26.432Z,83.23
2019-03-25T05:22:54.912Z,84.93
2019-03-25T05:25:23.329Z,85.80
2019-03-25T05:27:51.733Z,90.90
2019-03-25T05:30:22.859Z,81.13
2019-03-25T05:32:50.289Z,80.73
2019-03-25T05:35:18.712Z,76.77
2019-03-25T05:37:47.145Z,74.23
2019-03-25T05:40:15.552Z,75.87
2019-03-25T05:42:43.975Z,77.77
2019-03-25T05:45:12.513Z,76.40
2019-03-25T05:47:40.929Z,79.03
2019-03-25T05:50:09.775Z,77.23
2019-03-25T05:52:38.198Z,71.17
2019-03-25T05:55:07.664Z,69.63
2019-03-25T05:57:36.066Z,72.00
2019-03-25T06:00:04.927Z,66.27
2019-03-25T06:02:33.340Z,68.23
2019-03-25T06:05:01.810Z,63.27
2019-03-25T06:07:30.264Z,66.03
2019-03-25T06:09:58.673Z,54.23
2019-03-25T06:12:27.089Z,58.10
2019-03-25T06:14:55.536Z,62.57
2019-03-25T06:17:23.958Z,56.20
2019-03-25T06:19:52.357Z,50.50
2019-03-25T06:22:20.782Z,48.03
2019-03-25T06:24:50.505Z,48.87
2019-03-25T06:27:18.961Z,46.40
2019-03-25T06:29:47.381Z,41.30
2019-03-25T06:32:15.793Z,37.70
2019-03-25T06:34:44.219Z,38.63
2019-03-25T06:37:12.624Z,36.97
2019-03-25T06:39:41.052Z,34.70
2019-03-25T06:42:09.469Z,34.47
2019-03-25T06:44:37.877Z,35.23
2019-03-25T06:47:06.364Z,33.17
2019-03-25T06:49:34.775Z,33.97
2019-03-25T06:52:03.191Z,34.07
2019-03-25T06:54:31.595Z,31.97
2019-03-25T06:57:00.037Z,35.37
2019-03-25T06:59:28.511Z,31.17
2019-03-25T07:01:56.964Z,32.77
2019-03-25T07:04:25.385Z,31.27
2019-03-25T07:06:53.795Z,32.93
2019-03-25T07:09:22.208Z,32.63
2019-03-25T07:11:50.717Z,28.03
2019-03-25T07:14:19.455Z,24.47
2019-03-25T07:16:47.887Z,29.80
2019-03-25T07:19:16.291Z,28.30
2019-03-25T07:21:44.707Z,30.30
2019-03-25T07:24:13.120Z,28.57
2019-03-25T07:26:41.535Z,24.30
2019-03-25T07:29:09.950Z,23.23
2019-03-25T07:31:38.367Z,25.00
2019-03-25T07:34:06.780Z,28.37
2019-03-25T07:36:35.200Z,30.10
2019-03-25T07:39:05.089Z,27.17
2019-03-25T07:41:33.500Z,24.80
2019-03-25T07:44:01.933Z,24.10
2019-03-25T07:46:30.350Z,23.13
2019-03-25T07:48:58.848Z,27.40
2019-03-25T07:51:27.262Z,21.53
2019-03-25T07:53:55.684Z,23.23
2019-03-25T07:56:24.096Z,23.17
2019-03-25T07:58:52.541Z,23.40
2019-03-25T08:01:20.978Z,21.97
2019-03-25T08:03:49.468Z,19.40
2019-03-25T08:06:17.882Z,20.33
2019-03-25T08:08:47.283Z,22.13
2019-03-25T08:11:15.690Z,22.93
2019-03-25T08:13:44.224Z,24.00
2019-03-25T08:16:12.711Z,23.20
2019-03-25T08:18:41.159Z,22.60
2019-03-25T08:21:09.583Z,20.00
2019-03-25T08:23:38.069Z,21.27
2019-03-25T08:26:06.486Z,22.80
2019-03-25T08:28:34.891Z,21.90
2019-03-25T08:31:03.308Z,20.00
2019-03-25T08:33:31.730Z,23.63
2019-03-25T08:36:00.144Z,18.67
2019-03-25T08:38:28.565Z,21.63
2019-03-25T08:40:56.984Z,21.83
2019-03-25T08:43:25.424Z,23.90
2019-03-25T08:45:53.904Z,19.20
2019-03-25T08:48:22.316Z,20.60
2019-03-25T08:50:50.738Z,21.07
2019-03-25T08:53:19.148Z,22.10
2019-03-25T08:55:47.570Z,23.17
2019-03-25T08:58:15.983Z,22.97
2019-03-25T09:00:44.405Z,22.30
2019-03-25T09:03:12.824Z,20.60
2019-03-25T09:05:41.240Z,17.83
2019-03-25T09:08:09.660Z,16.63
2019-03-25T09:10:38.069Z,21.97
2019-03-25T09:13:06.581Z,20.00
2019-03-25T09:15:34.982Z,18.03
2019-03-25T09:18:03.422Z,16.30
2019-03-25T09:20:31.968Z,22.67
2019-03-25T09:23:00.387Z,18.93
2019-03-25T09:25:28.796Z,18.00
2019-03-25T09:27:58.819Z,17.17
2019-03-25T09:30:52.786Z,19.70
2019-03-25T09:33:21.545Z,15.97
2019-03-25T09:35:50.312Z,17.27
2019-03-25T09:38:18.759Z,16.67
2019-03-25T09:40:47.237Z,16.77
2019-03-25T09:43:15.647Z,18.83
2019-03-25T09:45:44.064Z,21.67
2019-03-25T09:48:12.469Z,18.57
2019-03-25T09:50:40.882Z,14.20
2019-03-25T09:53:09.371Z,15.20
2019-03-25T09:55:39.308Z,12.40
2019-03-25T09:58:07.720Z,14.27
2019-03-25T10:00:36.126Z,15.97
2019-03-25T10:03:05.472Z,19.47
2019-03-25T10:05:33.957Z,11.23
2019-03-25T10:08:02.363Z,12.63
2019-03-25T10:10:30.785Z,12.67
2019-03-25T10:12:59.196Z,13.20
2019-03-25T10:15:27.615Z,11.37
2019-03-25T10:17:56.027Z,10.27
2019-03-25T10:20:24.517Z,9.80
2019-03-25T10:22:52.920Z,15.37
2019-03-25T10:25:21.409Z,15.20
2019-03-25T10:27:49.822Z,12.67
2019-03-25T10:30:18.872Z,12.70
2019-03-25T10:32:47.347Z,13.97
2019-03-25T10:35:15.908Z,7.80
2019-03-25T10:37:44.312Z,11.03
2019-03-25T10:40:13.275Z,11.30
2019-03-25T10:42:41.700Z,10.83
2019-03-25T10:45:10.948Z,7.67
2019-03-25T10:47:39.360Z,6.37
2019-03-25T10:50:10.176Z,5.83
2019-03-25T10:52:38.645Z,10.57
2019-03-25T10:55:07.925Z,8.87
2019-03-25T10:57:36.668Z,9.70
2019-03-25T11:00:10.247Z,8.77
2019-03-25T11:02:38.662Z,9.13
2019-03-25T11:05:07.604Z,5.47
2019-03-25T11:07:36.120Z,5.27
2019-03-25T11:10:06.891Z,7.67
2019-03-25T11:12:35.311Z,6.77
2019-03-25T11:15:06.262Z,7.20
2019-03-25T11:17:34.674Z,14.83
2019-03-25T11:20:04.343Z,5.43
2019-03-25T11:22:32.755Z,9.83
2019-03-25T11:25:01.653Z,7.33
2019-03-25T11:27:30.058Z,8.20
2019-03-25T11:29:58.452Z,7.40
2019-03-25T11:32:26.869Z,7.23
2019-03-25T11:34:55.340Z,9.20
2019-03-25T11:37:23.747Z,4.97
2019-03-25T11:39:52.221Z,7.67
2019-03-25T11:42:20.643Z,6.90
2019-03-25T11:44:49.035Z,6.10
2019-03-25T11:47:17.442Z,5.03
2019-03-25T11:49:45.873Z,4.57
2019-03-25T11:52:14.284Z,8.63
2019-03-25T11:54:42.683Z,4.03
2019-03-25T11:57:11.108Z,5.40
2019-03-25T11:59:39.504Z,5.13
2019-03-25T12:02:17.319Z,4.30
2019-03-25T12:04:39.148Z,5.33
2019-03-25T12:07:07.561Z,6.67
2019-03-25T12:09:36.000Z,3.90
2019-03-25T12:12:04.477Z,4.37
2019-03-25T12:14:32.880Z,4.37
2019-03-25T12:17:01.291Z,4.90
2019-03-25T12:19:29.693Z,5.87
2019-03-25T12:21:58.108Z,6.70
2019-03-25T12:24:26.510Z,4.80
2019-03-25T12:26:54.926Z,5.00
2019-03-25T12:29:30.052Z,4.60
2019-03-25T12:31:53.479Z,5.87
2019-03-25T12:34:21.967Z,4.63
2019-03-25T12:36:50.377Z,4.50
2019-03-25T12:39:18.785Z,7.73
2019-03-25T12:41:47.205Z,5.07
2019-03-25T12:44:15.624Z,4.47
2019-03-25T12:46:44.043Z,7.00
2019-03-25T12:49:12.458Z,7.33
2019-03-25T12:51:43.195Z,8.37
2019-03-25T12:54:11.602Z,7.00
2019-03-25T12:56:40.024Z,4.33
2019-03-25T12:59:08.433Z,5.93
2019-03-25T13:01:36.851Z,6.93
2019-03-25T13:04:05.251Z,6.17
2019-03-25T13:06:33.672Z,7.30
2019-03-25T13:09:02.067Z,6.10
2019-03-25T13:11:30.479Z,4.83
2019-03-25T13:13:58.890Z,5.47
2019-03-25T13:16:27.289Z,5.07
2019-03-25T13:18:55.699Z,5.10
2019-03-25T13:21:24.107Z,6.70
2019-03-25T13:23:52.512Z,5.23
2019-03-25T13:26:20.928Z,9.00
2019-03-25T13:28:49.335Z,5.27
2019-03-25T13:31:17.752Z,6.70
2019-03-25T13:33:46.214Z,6.83
2019-03-25T13:36:14.659Z,7.73
2019-03-25T13:38:43.050Z,4.93
2019-03-25T13:41:11.472Z,9.00
2019-03-25T13:43:39.872Z,4.80
2019-03-25T13:46:08.276Z,6.13
2019-03-25T13:48:36.683Z,7.13
2019-03-25T13:51:05.261Z,5.37
2019-03-25T13:53:33.667Z,9.23
2019-03-25T13:56:02.077Z,7.80
2019-03-25T13:58:30.480Z,5.67
2019-03-25T14:00:59.380Z,5.23
2019-03-25T14:03:27.753Z,5.43
2019-03-25T14:05:56.219Z,4.60
2019-03-25T14:08:24.708Z,3.93
2019-03-25T14:10:53.120Z,5.93
2019-03-25T14:13:21.517Z,3.93
2019-03-25T14:15:49.927Z,3.37
2019-03-25T14:18:18.346Z,6.00
2019-03-25T14:20:46.774Z,4.53
2019-03-25T14:23:15.227Z,4.53
2019-03-25T14:25:43.643Z,4.10
2019-03-25T14:28:12.043Z,5.30
2019-03-25T14:30:40.488Z,4.53
2019-03-25T14:33:08.883Z,7.37
2019-03-25T14:35:37.283Z,4.60
2019-03-25T14:38:05.753Z,6.23
2019-03-25T14:40:34.429Z,9.37
2019-03-25T14:43:02.897Z,3.93
2019-03-25T14:45:31.307Z,6.47
2019-03-25T14:47:59.715Z,7.00
2019-03-25T14:50:28.132Z,5.53
2019-03-25T14:52:56.531Z,5.50
2019-03-25T14:55:25.007Z,6.57
2019-03-25T14:57:53.423Z,6.80
2019-03-25T15:00:25.539Z,8.50
2019-03-25T15:02:51.947Z,8.27
2019-03-25T15:05:20.363Z,5.87
2019-03-25T15:07:48.835Z,7.70
2019-03-25T15:10:17.487Z,6.83
2019-03-25T15:12:45.955Z,9.93
2019-03-25T15:15:15.004Z,3.80
2019-03-25T15:17:43.412Z,5.03
2019-03-25T15:20:12.276Z,4.47
2019-03-25T15:22:40.668Z,4.70
2019-03-25T15:25:09.521Z,4.13
2019-03-25T15:27:37.923Z,3.67
2019-03-25T15:30:08.872Z,3.63
2019-03-25T15:32:37.267Z,3.60
2019-03-25T15:35:07.211Z,4.60
2019-03-25T15:37:35.686Z,3.50
2019-03-25T15:40:07.577Z,3.73
2019-03-25T15:42:36.038Z,3.80
2019-03-25T15:45:06.271Z,4.10
2019-03-25T15:47:34.779Z,5.80
2019-03-25T15:50:03.920Z,6.20
2019-03-25T15:52:32.333Z,5.03
2019-03-25T15:55:00.731Z,5.43
2019-03-25T15:57:29.223Z,4.07
2019-03-25T15:59:57.685Z,4.50
2019-03-25T16:02:26.101Z,4.03
2019-03-25T16:04:54.501Z,5.43
2019-03-25T16:07:22.912Z,4.73
2019-03-25T16:09:51.317Z,6.20
2019-03-25T16:12:19.797Z,5.00
2019-03-25T16:14:48.212Z,7.07
2019-03-25T16:17:16.620Z,5.50
2019-03-25T16:19:45.028Z,5.87
2019-03-25T16:22:13.432Z,6.43
2019-03-25T16:24:41.852Z,7.20
2019-03-25T16:27:10.255Z,5.30
2019-03-25T16:29:38.665Z,5.70
2019-03-25T16:32:07.067Z,7.87
2019-03-25T16:34:35.477Z,5.97
2019-03-25T16:37:03.893Z,6.23
2019-03-25T16:39:32.288Z,5.83
2019-03-25T16:42:00.711Z,4.37
2019-03-25T16:44:29.121Z,6.40
2019-03-25T16:46:57.603Z,4.13
2019-03-25T16:49:26.011Z,4.43
2019-03-25T16:51:54.499Z,4.30
2019-03-25T16:54:22.914Z,4.20
2019-03-25T16:56:51.311Z,5.70
2019-03-25T16:59:19.728Z,3.97
2019-03-25T17:01:48.127Z,2.67
2019-03-25T17:04:16.545Z,3.70
2019-03-25T17:06:44.952Z,3.97
2019-03-25T17:09:13.373Z,4.57
2019-03-25T17:11:41.779Z,4.10
2019-03-25T17:14:10.187Z,5.23
2019-03-25T17:16:38.669Z,5.63
2019-03-25T17:19:07.144Z,5.40
2019-03-25T17:21:35.548Z,5.20
2019-03-25T17:24:04.026Z,3.67
2019-03-25T17:26:42.060Z,5.67
2019-03-25T17:29:02.560Z,4.13
2019-03-25T17:31:30.963Z,4.63
2019-03-25T17:33:59.384Z,5.23
2019-03-25T17:36:27.796Z,6.53
2019-03-25T17:38:56.207Z,5.03
2019-03-25T17:41:24.615Z,5.10
2019-03-25T17:43:53.011Z,3.47
2019-03-25T17:46:21.428Z,4.23
2019-03-25T17:48:49.819Z,6.87
2019-03-25T17:51:18.227Z,4.90
2019-03-25T17:53:46.623Z,3.30
2019-03-25T17:56:15.046Z,6.33
2019-03-25T17:58:43.452Z,5.63
2019-03-25T18:01:13.904Z,5.53
2019-03-25T18:03:42.590Z,4.50
2019-03-25T18:06:11.462Z,5.40
2019-03-25T18:08:41.846Z,5.07
2019-03-25T18:11:10.209Z,4.40
2019-03-25T18:13:42.708Z,4.47
2019-03-25T18:16:12.376Z,4.70
2019-03-25T18:18:41.890Z,3.90
2019-03-25T18:21:13.281Z,4.47
2019-03-25T18:23:41.680Z,4.53
2019-03-25T18:26:10.089Z,5.97
2019-03-25T18:28:38.497Z,4.93
2019-03-25T18:31:08.468Z,4.20
2019-03-25T18:33:36.889Z,4.20
2019-03-25T18:36:05.370Z,6.03
2019-03-25T18:38:33.750Z,5.07
2019-03-25T18:41:02.164Z,3.87
2019-03-25T18:43:30.716Z,3.70
2019-03-25T18:45:59.155Z,4.83
2019-03-25T18:48:27.555Z,5.33
2019-03-25T18:50:55.961Z,3.80
2019-03-25T18:53:24.365Z,3.70
2019-03-25T18:55:52.799Z,4.17
2019-03-25T18:58:21.254Z,4.63
2019-03-25T19:00:49.745Z,5.20
2019-03-25T19:03:18.514Z,4.47
2019-03-25T19:05:47.214Z,3.83
2019-03-25T19:08:15.811Z,5.47
2019-03-25T19:10:44.283Z,4.57
2019-03-25T19:13:12.763Z,3.60
2019-03-25T19:15:41.254Z,5.77
2019-03-25T19:18:09.735Z,5.83
2019-03-25T19:20:38.160Z,3.50
2019-03-25T19:23:06.550Z,4.27
2019-03-25T19:25:35.032Z,7.17
2019-03-25T19:28:03.506Z,4.97
2019-03-25T19:30:31.921Z,5.70
2019-03-25T19:33:00.323Z,7.67
2019-03-25T19:35:30.073Z,5.17
2019-03-25T19:37:58.717Z,5.30
2019-03-25T19:40:27.119Z,3.77
2019-03-25T19:42:55.543Z,4.23
2019-03-25T19:45:23.995Z,4.53
2019-03-25T19:47:52.414Z,3.77
2019-03-25T19:50:20.968Z,4.40
2019-03-25T19:52:49.438Z,4.80
2019-03-25T19:55:17.921Z,3.83
2019-03-25T19:57:46.315Z,4.27
2019-03-25T20:00:15.269Z,4.63
2019-03-25T20:02:43.736Z,3.53
2019-03-25T20:05:12.284Z,4.37
2019-03-25T20:07:40.750Z,5.23
2019-03-25T20:10:12.262Z,5.00
2019-03-25T20:12:40.718Z,2.93
2019-03-25T20:15:09.760Z,3.10
2019-03-25T20:17:38.206Z,2.70
2019-03-25T20:20:06.907Z,4.50
2019-03-25T20:22:35.369Z,3.07
2019-03-25T20:25:05.747Z,2.73
2019-03-25T20:27:34.304Z,2.50
2019-03-25T20:30:03.215Z,3.37
2019-03-25T20:32:32.560Z,2.63
2019-03-25T20:35:00.971Z,4.30
2019-03-25T20:37:29.377Z,2.80
2019-03-25T20:39:57.888Z,4.63
2019-03-25T20:42:26.345Z,3.03
2019-03-25T20:44:54.772Z,2.63
2019-03-25T20:47:23.241Z,3.43
2019-03-25T20:49:51.703Z,3.17
2019-03-25T20:52:20.229Z,3.80
2019-03-25T20:54:48.689Z,3.20
2019-03-25T20:57:17.112Z,4.10
2019-03-25T20:59:45.557Z,3.97
2019-03-25T21:02:13.966Z,4.30
2019-03-25T21:04:42.374Z,4.50
2019-03-25T21:07:10.797Z,6.03
2019-03-25T21:09:39.264Z,4.73
2019-03-25T21:12:07.684Z,5.37
2019-03-25T21:14:36.159Z,6.83
2019-03-25T21:17:04.832Z,5.10
2019-03-25T21:19:33.491Z,7.17
2019-03-25T21:22:01.972Z,6.33
2019-03-25T21:24:30.376Z,8.67
2019-03-25T21:26:58.936Z,6.20
2019-03-25T21:29:27.424Z,5.93
2019-03-25T21:31:55.918Z,7.67
2019-03-25T21:34:24.391Z,7.37
2019-03-25T21:36:52.978Z,7.47
2019-03-25T21:39:21.375Z,5.80
2019-03-25T21:41:49.862Z,6.33
2019-03-25T21:44:18.355Z,7.27
2019-03-25T21:46:46.866Z,6.37
2019-03-25T21:49:15.269Z,6.83
2019-03-25T21:51:43.827Z,6.53
2019-03-25T21:54:12.322Z,7.67
2019-03-25T21:56:40.822Z,6.80
2019-03-25T21:59:09.237Z,7.00
2019-03-25T22:01:37.644Z,8.17
2019-03-25T22:04:06.027Z,7.33
2019-03-25T22:06:34.436Z,8.40
2019-03-25T22:09:02.854Z,6.70
2019-03-25T22:11:31.255Z,8.17
2019-03-25T22:13:59.659Z,6.50
2019-03-25T22:16:28.060Z,6.47
2019-03-25T22:18:56.480Z,6.60
2019-03-25T22:21:24.880Z,7.73
2019-03-25T22:23:53.964Z,6.80
2019-03-25T22:26:22.480Z,6.43
2019-03-25T22:28:50.885Z,6.60
2019-03-25T22:31:19.280Z,6.93
2019-03-25T22:33:47.684Z,5.90
2019-03-25T22:36:16.094Z,5.80
2019-03-25T22:38:44.490Z,6.80
2019-03-25T22:41:12.899Z,8.20
2019-03-25T22:43:41.303Z,7.30
2019-03-25T22:46:10.660Z,6.83
2019-03-25T22:48:39.057Z,6.27
2019-03-25T22:51:07.477Z,6.60
2019-03-25T22:53:35.871Z,5.60
2019-03-25T22:56:04.285Z,7.27
2019-03-25T22:58:32.692Z,7.97
2019-03-25T23:01:02.344Z,6.50
2019-03-25T23:03:39.222Z,7.30
2019-03-25T23:06:00.948Z,6.33
2019-03-25T23:08:29.347Z,5.80
2019-03-25T23:10:57.774Z,6.27
2019-03-25T23:13:26.176Z,9.33
2019-03-25T23:15:54.582Z,6.73
2019-03-25T23:18:22.988Z,6.37
2019-03-25T23:20:51.391Z,7.03
2019-03-25T23:23:19.804Z,9.20
2019-03-25T23:25:48.235Z,6.83
2019-03-25T23:28:16.652Z,7.40
2019-03-25T23:30:45.053Z,6.00
2019-03-25T23:33:13.459Z,7.23
2019-03-25T23:35:41.872Z,7.47
2019-03-25T23:38:10.264Z,4.60
2019-03-25T23:40:38.681Z,6.13
2019-03-25T23:43:07.087Z,7.40
2019-03-25T23:45:35.516Z,7.17
2019-03-25T23:48:03.998Z,6.97
2019-03-25T23:50:32.400Z,6.43
2019-03-25T23:53:00.803Z,6.23
2019-03-25T23:55:29.272Z,7.70
2019-03-25T23:57:57.689Z,7.37
